Time;durP1;ratioP1;P1;durP2;ratioP2;P2;SDS_P1;SDS_P2;PMS_P1;PMS_P2;Temp;Humidity;BMP_temperature;BMP_pressure;BME280_temperature;BME280_humidity;BME280_pressure;Samples;Min_cycle;Max_cycle;Signal;HPM_P1;HPM_P2
2023/07/05 00:00:39;;;;;;;;;;;;;;;22.95;73.59;96875.14;624609;227;64879;-62
2023/07/05 00:03:06;;;;;;;;;;;;;;;22.94;73.59;96871.64;624635;227;64596;-63
2023/07/05 00:05:40;;;;;;;;;;;;;;;22.94;73.58;96868.16;624597;227;65009;-60
2023/07/05 00:08:08;;;;;;;;;;;;;;;22.94;73.57;96865.48;624657;227;64925;-62
2023/07/05 00:10:36;;;;;;;;;;;;;;;22.95;73.57;96869.78;624586;227;65560;-63
2023/07/05 00:13:03;;;;;;;;;;;;;;;22.94;73.59;96868.95;625494;226;62977;-63
2023/07/05 00:15:32;;;;;;;;;;;;;;;22.94;73.57;96878.88;626901;226;67239;-63
2023/07/05 00:17:59;;;;;;;;;;;;;;;22.94;73.59;96884.24;626897;226;67131;-63
2023/07/05 00:20:27;;;;;;;;;;;;;;;22.94;73.59;96882.36;626928;226;65097;-62
2023/07/05 00:22:55;;;;;;;;;;;;;;;22.94;73.54;96885.03;626836;226;66991;-63
2023/07/05 00:25:22;;;;;;;;;;;;;;;22.94;73.57;96884.24;626872;226;66863;-63
2023/07/05 00:27:49;;;;;;;;;;;;;;;22.94;73.54;96882.36;626898;226;63124;-63
2023/07/05 00:30:18;;;;;;;;;;;;;;;22.94;73.53;96874.31;626890;226;67509;-63
2023/07/05 00:32:45;;;;;;;;;;;;;;;22.94;73.54;96881.56;626931;226;66873;-63
2023/07/05 00:35:12;;;;;;;;;;;;;;;22.93;73.56;96877.30;626809;226;62916;-63
2023/07/05 00:37:40;;;;;;;;;;;;;;;22.94;73.58;96881.56;626877;226;67243;-63
2023/07/05 00:40:08;;;;;;;;;;;;;;;22.94;73.54;96873.52;626876;226;64731;-63
2023/07/05 00:42:35;;;;;;;;;;;;;;;22.93;73.51;96872.73;626896;226;65013;-63
2023/07/05 00:45:14;;;;;;;;;;;;;;;22.94;73.54;96863.59;626932;226;67046;-63
2023/07/05 00:47:43;;;;;;;;;;;;;;;22.93;73.53;96875.41;626908;226;67451;-63
2023/07/05 00:50:12;;;;;;;;;;;;;;;22.93;73.53;96867.38;626844;226;65032;-63
2023/07/05 00:52:40;;;;;;;;;;;;;;;22.94;73.54;96865.48;626638;225;67463;-62
2023/07/05 00:55:10;;;;;;;;;;;;;;;22.94;73.52;96865.48;622798;226;69816;-63
2023/07/05 00:57:39;;;;;;;;;;;;;;;22.93;73.54;96863.90;626882;226;62744;-62
2023/07/05 01:00:09;;;;;;;;;;;;;;;22.93;73.53;96853.97;626895;226;65053;-63
2023/07/05 01:02:39;;;;;;;;;;;;;;;22.93;73.53;96855.86;626780;226;66995;-62
2023/07/05 01:05:07;;;;;;;;;;;;;;;22.93;73.52;96856.66;626891;226;64842;-63
2023/07/05 01:07:35;;;;;;;;;;;;;;;22.94;73.52;96868.16;626864;226;65117;-63
2023/07/05 01:10:02;;;;;;;;;;;;;;;22.94;73.51;96862.80;626889;226;64766;-63
2023/07/05 01:12:32;;;;;;;;;;;;;;;22.93;73.52;96858.55;626478;226;65780;-63
2023/07/05 01:15:07;;;;;;;;;;;;;;;22.93;73.50;96856.66;624640;227;68042;-63
2023/07/05 01:17:46;;;;;;;;;;;;;;;22.93;73.52;96847.82;624621;227;67473;-63
2023/07/05 01:20:15;;;;;;;;;;;;;;;22.93;73.50;96853.19;624595;227;65042;-63
2023/07/05 01:23:00;;;;;;;;;;;;;;;22.93;73.51;96850.50;624482;225;67210;-63
2023/07/05 01:25:32;;;;;;;;;;;;;;;22.93;73.53;96845.14;624548;227;65096;-63
2023/07/05 01:28:04;;;;;;;;;;;;;;;22.92;73.51;96852.39;624640;227;62843;-63
2023/07/05 01:30:34;;;;;;;;;;;;;;;22.93;73.52;96861.22;624708;227;64948;-63
2023/07/05 01:33:03;;;;;;;;;;;;;;;22.93;73.53;96855.86;624649;227;64876;-63
2023/07/05 01:35:32;;;;;;;;;;;;;;;22.92;73.54;96855.07;624426;225;64925;-63
2023/07/05 01:37:59;;;;;;;;;;;;;;;22.92;73.48;96851.59;624559;225;67038;-63
2023/07/05 01:40:29;;;;;;;;;;;;;;;22.93;73.54;96842.47;624648;227;64852;-63
2023/07/05 01:42:58;;;;;;;;;;;;;;;22.94;73.48;96844.05;624729;227;65010;-63
2023/07/05 01:45:45;;;;;;;;;;;;;;;22.93;73.50;96845.14;624586;227;67578;-63
2023/07/05 01:48:21;;;;;;;;;;;;;;;22.93;73.52;96850.50;624604;224;67390;-63
2023/07/05 01:50:54;;;;;;;;;;;;;;;22.93;73.51;96848.61;624524;225;62483;-63
2023/07/05 01:53:27;;;;;;;;;;;;;;;22.93;73.50;96850.50;624518;225;67337;-63
2023/07/05 01:55:56;;;;;;;;;;;;;;;22.93;73.52;96858.55;624580;226;67040;-63
2023/07/05 01:58:25;;;;;;;;;;;;;;;22.93;73.53;96850.50;624569;225;65034;-61
2023/07/05 02:00:53;;;;;;;;;;;;;;;22.93;73.53;96845.14;624645;227;67141;-61
2023/07/05 02:03:22;;;;;;;;;;;;;;;22.92;73.54;96849.71;624639;227;67795;-61
2023/07/05 02:05:50;;;;;;;;;;;;;;;22.92;73.56;96847.03;624638;227;65305;-61
2023/07/05 02:08:19;;;;;;;;;;;;;;;22.93;73.53;96845.14;624631;227;67878;-61
2023/07/05 02:10:47;;;;;;;;;;;;;;;22.93;73.55;96850.50;624649;227;64694;-61
2023/07/05 02:13:14;;;;;;;;;;;;;;;22.93;73.51;96845.14;624628;227;62995;-61
2023/07/05 02:15:42;;;;;;;;;;;;;;;22.93;73.52;96848.61;624592;227;67623;-61
2023/07/05 02:18:09;;;;;;;;;;;;;;;22.91;73.49;96844.63;624656;227;66977;-61
2023/07/05 02:20:37;;;;;;;;;;;;;;;22.93;73.51;96847.82;624608;227;64983;-61
2023/07/05 02:23:04;;;;;;;;;;;;;;;22.93;73.52;96845.14;624616;227;65012;-61
2023/07/05 02:25:32;;;;;;;;;;;;;;;22.93;73.54;96850.50;624673;227;64762;-61
2023/07/05 02:28:00;;;;;;;;;;;;;;;22.93;73.54;96855.86;624584;227;63774;-61
2023/07/05 02:30:27;;;;;;;;;;;;;;;22.92;73.54;96844.35;624624;227;65627;-61
2023/07/05 02:32:55;;;;;;;;;;;;;;;22.93;73.52;96842.47;624650;227;66621;-61
2023/07/05 02:35:22;;;;;;;;;;;;;;;22.93;73.54;96839.78;624610;227;62739;-60
2023/07/05 02:37:50;;;;;;;;;;;;;;;22.92;73.56;96843.56;624677;227;65854;-61
2023/07/05 02:40:17;;;;;;;;;;;;;;;22.93;73.50;96845.94;624580;227;65071;-61
2023/07/05 02:42:45;;;;;;;;;;;;;;;22.93;73.53;96851.30;624625;227;65269;-61
2023/07/05 02:45:13;;;;;;;;;;;;;;;22.92;73.51;96857.75;624631;227;67197;-61
2023/07/05 02:47:40;;;;;;;;;;;;;;;22.92;73.51;96852.39;624640;227;66970;-61
2023/07/05 02:50:08;;;;;;;;;;;;;;;22.94;73.52;96860.13;624668;227;65742;-61
2023/07/05 02:52:36;;;;;;;;;;;;;;;22.93;73.52;96853.19;624650;227;67968;-61
2023/07/05 02:55:03;;;;;;;;;;;;;;;22.93;73.55;96867.38;624620;227;64935;-61
2023/07/05 02:57:31;;;;;;;;;;;;;;;22.93;73.53;96870.05;624672;227;62947;-61
2023/07/05 02:59:59;;;;;;;;;;;;;;;22.93;73.54;96866.58;624604;227;67385;-61
2023/07/05 03:02:27;;;;;;;;;;;;;;;22.93;73.55;96861.22;624632;227;67564;-61
2023/07/05 03:04:54;;;;;;;;;;;;;;;22.92;73.54;96868.47;624647;227;65152;-61
2023/07/05 03:07:22;;;;;;;;;;;;;;;22.93;73.55;96861.22;624623;227;67443;-61
2023/07/05 03:09:49;;;;;;;;;;;;;;;22.92;73.57;96859.64;624622;227;67595;-61
2023/07/05 03:12:17;;;;;;;;;;;;;;;22.93;73.52;96858.55;624580;227;64868;-60
2023/07/05 03:14:45;;;;;;;;;;;;;;;22.92;73.54;96854.28;624636;227;64569;-60
2023/07/05 03:17:12;;;;;;;;;;;;;;;22.92;73.53;96855.07;624696;227;66778;-61
2023/07/05 03:19:40;;;;;;;;;;;;;;;22.92;73.52;96860.43;624656;227;63792;-61
2023/07/05 03:22:08;;;;;;;;;;;;;;;22.92;73.54;96856.95;624635;227;65839;-61
2023/07/05 03:24:35;;;;;;;;;;;;;;;22.93;73.55;96862.02;624657;227;64549;-60
2023/07/05 03:27:03;;;;;;;;;;;;;;;22.92;73.52;96852.39;624562;227;62875;-60
2023/07/05 03:29:30;;;;;;;;;;;;;;;22.92;73.53;96855.07;624649;227;67935;-60
2023/07/05 03:31:59;;;;;;;;;;;;;;;22.92;73.52;96855.07;624139;227;64179;-61
2023/07/05 03:34:26;;;;;;;;;;;;;;;22.92;73.51;96855.07;624159;227;66484;-60
2023/07/05 03:36:54;;;;;;;;;;;;;;;22.93;73.54;96853.19;624659;227;64199;-60
2023/07/05 03:39:21;;;;;;;;;;;;;;;22.93;73.53;96861.22;624670;227;65593;-60
2023/07/05 03:41:49;;;;;;;;;;;;;;;22.92;73.50;96865.00;624684;227;62968;-60
2023/07/05 03:44:18;;;;;;;;;;;;;;;22.92;73.50;96855.07;624624;227;66738;-61
2023/07/05 03:46:47;;;;;;;;;;;;;;;22.92;73.50;96854.28;624652;225;66768;-61
2023/07/05 03:49:15;;;;;;;;;;;;;;;22.93;73.51;96859.33;624577;227;65176;-60
2023/07/05 03:51:42;;;;;;;;;;;;;;;22.92;73.52;96859.64;624631;227;65149;-60
2023/07/05 03:54:09;;;;;;;;;;;;;;;22.92;73.53;96854.28;624655;227;65172;-60
2023/07/05 03:56:37;;;;;;;;;;;;;;;22.92;73.52;96856.95;624620;227;62887;-60
2023/07/05 03:59:04;;;;;;;;;;;;;;;22.91;73.48;96863.38;624606;227;67188;-60
2023/07/05 04:01:33;;;;;;;;;;;;;;;22.92;73.49;96856.95;624406;227;66885;-60
2023/07/05 04:04:01;;;;;;;;;;;;;;;22.91;73.49;96860.70;624542;227;65026;-60
2023/07/05 04:06:30;;;;;;;;;;;;;;;22.92;73.50;96851.59;624620;227;67195;-61
2023/07/05 04:08:57;;;;;;;;;;;;;;;22.92;73.48;96851.59;624403;227;67014;-61
2023/07/05 04:11:25;;;;;;;;;;;;;;;22.92;73.48;96854.28;624635;227;65006;-60
2023/07/05 04:13:54;;;;;;;;;;;;;;;22.92;73.47;96855.07;626289;226;66935;-61
2023/07/05 04:16:24;;;;;;;;;;;;;;;22.92;73.48;96848.92;626853;226;67058;-61
2023/07/05 04:18:53;;;;;;;;;;;;;;;22.92;73.49;96854.28;626621;226;62985;-60
2023/07/05 04:21:21;;;;;;;;;;;;;;;22.92;73.49;96846.23;626919;226;67423;-61
2023/07/05 04:23:49;;;;;;;;;;;;;;;22.92;73.50;96848.92;626894;226;67098;-61
2023/07/05 04:26:17;;;;;;;;;;;;;;;22.90;73.49;96845.72;626860;226;62899;-60
2023/07/05 04:28:45;;;;;;;;;;;;;;;22.92;73.47;96843.56;626841;226;64869;-60
2023/07/05 04:31:16;;;;;;;;;;;;;;;22.93;73.49;96845.14;626893;226;64868;-61
2023/07/05 04:33:44;;;;;;;;;;;;;;;22.91;73.48;96848.09;626935;226;63018;-60
2023/07/05 04:36:12;;;;;;;;;;;;;;;22.91;73.50;96847.30;626913;226;67274;-60
2023/07/05 04:38:39;;;;;;;;;;;;;;;22.92;73.49;96846.23;626893;226;67134;-61
2023/07/05 04:41:07;;;;;;;;;;;;;;;22.92;73.49;96843.56;626847;226;62892;-60
2023/07/05 04:43:34;;;;;;;;;;;;;;;22.92;73.50;96838.20;626860;226;64893;-61
2023/07/05 04:46:02;;;;;;;;;;;;;;;22.91;73.48;96833.91;626886;226;66883;-61
2023/07/05 04:48:30;;;;;;;;;;;;;;;22.92;73.50;96843.56;626935;226;64890;-61
2023/07/05 04:50:58;;;;;;;;;;;;;;;22.91;73.48;96847.30;626903;226;65894;-61
2023/07/05 04:53:26;;;;;;;;;;;;;;;22.92;73.48;96840.88;626882;226;65894;-60
2023/07/05 04:55:55;;;;;;;;;;;;;;;22.93;73.50;96839.78;626843;226;62961;-60
2023/07/05 04:58:23;;;;;;;;;;;;;;;22.91;73.51;96836.59;626890;226;67253;-61
2023/07/05 05:00:51;;;;;;;;;;;;;;;22.92;73.52;96835.52;626963;226;66832;-60
2023/07/05 05:03:23;;;;;;;;;;;;;;;22.90;73.50;96838.47;626882;226;62747;-61
2023/07/05 05:05:54;;;;;;;;;;;;;;;22.92;73.50;96822.13;626879;226;67282;-59
2023/07/05 05:08:22;;;;;;;;;;;;;;;22.90;73.47;96830.44;626846;226;65425;-60
2023/07/05 05:10:54;;;;;;;;;;;;;;;22.91;73.53;96844.63;626888;226;64976;-60
2023/07/05 05:13:22;;;;;;;;;;;;;;;22.92;73.54;96843.56;625627;225;67366;-60
2023/07/05 05:15:50;;;;;;;;;;;;;;;22.90;73.54;96841.16;624664;227;67053;-60
2023/07/05 05:18:18;;;;;;;;;;;;;;;22.92;73.50;96838.20;624336;227;65027;-60
2023/07/05 05:20:45;;;;;;;;;;;;;;;22.91;73.57;96839.27;624535;227;67199;-62
2023/07/05 05:23:13;;;;;;;;;;;;;;;22.91;73.55;96839.27;624604;227;67055;-63
2023/07/05 05:25:44;;;;;;;;;;;;;;;22.90;73.56;96838.47;624686;227;64982;-63
2023/07/05 05:28:12;;;;;;;;;;;;;;;22.90;73.56;96841.16;624653;227;64603;-63
2023/07/05 05:30:41;;;;;;;;;;;;;;;22.90;73.57;96843.83;624624;224;66930;-60
2023/07/05 05:33:08;;;;;;;;;;;;;;;22.90;73.54;96837.69;624544;227;64826;-60
2023/07/05 05:35:36;;;;;;;;;;;;;;;22.92;73.57;96838.20;624556;227;67264;-60
2023/07/05 05:38:04;;;;;;;;;;;;;;;22.91;73.55;96836.59;624594;227;67029;-60
2023/07/05 05:40:34;;;;;;;;;;;;;;;22.92;73.55;96838.20;624402;227;65030;-60
2023/07/05 05:43:02;;;;;;;;;;;;;;;22.91;73.53;96836.59;624574;227;67283;-60
2023/07/05 05:45:29;;;;;;;;;;;;;;;22.91;73.57;96839.27;624600;227;67064;-60
2023/07/05 05:47:57;;;;;;;;;;;;;;;22.92;73.57;96838.20;624565;227;65011;-60
2023/07/05 05:50:24;;;;;;;;;;;;;;;22.90;73.60;96840.36;624611;227;67045;-60
2023/07/05 05:52:52;;;;;;;;;;;;;;;22.92;73.61;96843.56;624644;227;67085;-60
2023/07/05 05:55:20;;;;;;;;;;;;;;;22.90;73.62;96841.16;624535;227;62893;-60
2023/07/05 05:57:47;;;;;;;;;;;;;;;22.91;73.61;96841.95;624552;227;65067;-62
2023/07/05 06:00:15;;;;;;;;;;;;;;;22.90;73.59;96841.16;624600;227;65839;-60
2023/07/05 06:02:43;;;;;;;;;;;;;;;22.90;73.62;96829.64;624548;227;65028;-60
2023/07/05 06:05:11;;;;;;;;;;;;;;;22.93;73.90;96837.89;624067;227;64963;-60
2023/07/05 06:07:39;;;;;;;;;;;;;;;22.93;73.87;96835.22;624595;227;64922;-59
2023/07/05 06:10:07;;;;;;;;;;;;;;;22.93;73.69;96845.14;621736;227;62975;-59
2023/07/05 06:12:40;;;;;;;;;;;;;;;22.90;73.69;96845.72;624922;226;67250;-62
2023/07/05 06:15:04;;;;;;;;;;;;;;;22.96;73.94;96841.91;626602;225;66988;-63
2023/07/05 06:17:33;;;;;;;;;;;;;;;22.95;73.71;96842.98;626658;225;62990;-63
2023/07/05 06:20:00;;;;;;;;;;;;;;;23.03;73.24;96840.48;626892;226;65126;-59
2023/07/05 06:22:28;;;;;;;;;;;;;;;23.03;73.45;96842.38;626815;226;67594;-60
2023/07/05 06:24:55;;;;;;;;;;;;;;;23.03;73.73;96843.16;626784;226;65047;-59
2023/07/05 06:27:22;;;;;;;;;;;;;;;23.04;73.84;96838.59;626801;226;67016;-59
2023/07/05 06:29:50;;;;;;;;;;;;;;;23.04;74.23;96844.75;626873;226;67088;-59
2023/07/05 06:32:17;;;;;;;;;;;;;;;23.07;74.28;96846.05;626844;226;62987;-59
2023/07/05 06:34:45;;;;;;;;;;;;;;;23.07;74.28;96840.70;626789;226;67330;-59
2023/07/05 06:37:12;;;;;;;;;;;;;;;23.08;74.36;96841.48;626881;226;67105;-59
2023/07/05 06:39:41;;;;;;;;;;;;;;;23.09;74.37;96840.42;626817;226;62922;-60
2023/07/05 06:42:09;;;;;;;;;;;;;;;23.10;74.37;96839.33;626837;226;67034;-60
2023/07/05 06:44:38;;;;;;;;;;;;;;;23.10;74.45;96834.75;626886;225;43673;-60
2023/07/05 06:47:05;;;;;;;;;;;;;;;23.10;74.55;96837.44;626780;226;65062;-59
2023/07/05 06:49:33;;;;;;;;;;;;;;;23.11;74.60;96841.73;626868;226;65221;-59
2023/07/05 06:52:00;;;;;;;;;;;;;;;23.12;74.68;96835.27;626875;226;66929;-62
2023/07/05 06:54:28;;;;;;;;;;;;;;;23.13;74.64;96836.85;626731;226;65041;-62
2023/07/05 06:56:55;;;;;;;;;;;;;;;23.14;74.57;96827.74;626927;226;67129;-62
2023/07/05 06:59:25;;;;;;;;;;;;;;;23.15;74.48;96825.85;626875;226;67007;-61
2023/07/05 07:01:52;;;;;;;;;;;;;;;23.15;74.47;96825.85;626806;226;65035;-62
2023/07/05 07:04:20;;;;;;;;;;;;;;;23.16;74.43;96838.16;626838;226;67236;-62
2023/07/05 07:06:47;;;;;;;;;;;;;;;23.17;74.42;96840.56;626795;226;67071;-62
2023/07/05 07:09:15;;;;;;;;;;;;;;;23.19;73.98;96841.08;626793;226;64906;-60
2023/07/05 07:11:42;;;;;;;;;;;;;;;23.19;74.12;96841.08;626824;226;67258;-59
2023/07/05 07:14:10;;;;;;;;;;;;;;;23.17;74.31;96848.61;624838;226;67106;-59
2023/07/05 07:16:37;;;;;;;;;;;;;;;23.15;74.18;96849.98;624511;227;62982;-60
2023/07/05 07:19:05;;;;;;;;;;;;;;;23.14;74.14;96849.19;624588;227;64875;-59
2023/07/05 07:21:33;;;;;;;;;;;;;;;23.13;74.60;96847.58;624513;227;67064;-60
2023/07/05 07:24:00;;;;;;;;;;;;;;;23.13;74.73;96852.94;624577;227;65102;-60
2023/07/05 07:26:28;;;;;;;;;;;;;;;23.12;74.76;96850.56;624569;227;64559;-59
2023/07/05 07:28:56;;;;;;;;;;;;;;;23.12;74.78;96845.99;624576;227;66495;-59
2023/07/05 07:31:25;;;;;;;;;;;;;;;23.12;74.81;96843.31;624579;227;65061;-59
2023/07/05 07:33:53;;;;;;;;;;;;;;;23.11;74.77;96844.41;624594;227;66905;-61
2023/07/05 07:36:25;;;;;;;;;;;;;;;23.11;74.84;96852.45;624551;227;67097;-60
2023/07/05 07:38:53;;;;;;;;;;;;;;;23.11;74.91;96849.77;624419;226;65198;-60
2023/07/05 07:41:25;;;;;;;;;;;;;;;23.11;74.85;96855.13;624595;227;66955;-59
2023/07/05 07:43:53;;;;;;;;;;;;;;;23.11;74.85;96849.77;624557;227;66832;-60
2023/07/05 07:46:22;;;;;;;;;;;;;;;23.11;74.82;96846.27;624614;227;65819;-60
2023/07/05 07:48:51;;;;;;;;;;;;;;;23.11;74.86;96852.45;624584;227;66852;-60
2023/07/05 07:51:19;;;;;;;;;;;;;;;23.11;74.92;96847.09;624488;227;67171;-60
2023/07/05 07:53:47;;;;;;;;;;;;;;;23.12;74.92;96858.60;624556;227;62699;-60
2023/07/05 07:56:16;;;;;;;;;;;;;;;23.12;74.86;96858.60;624484;227;66945;-60
2023/07/05 07:58:45;;;;;;;;;;;;;;;23.12;74.85;96863.97;624464;227;65112;-60
2023/07/05 08:01:17;;;;;;;;;;;;;;;23.11;74.86;96860.48;624526;227;64796;-60
2023/07/05 08:03:44;;;;;;;;;;;;;;;23.11;74.78;96863.17;624544;227;64240;-59
2023/07/05 08:06:12;;;;;;;;;;;;;;;23.11;74.69;96857.81;624514;227;66981;-60
2023/07/05 08:08:40;;;;;;;;;;;;;;;23.11;74.73;96849.77;624549;227;65203;-59
2023/07/05 08:11:09;;;;;;;;;;;;;;;23.12;74.71;96864.75;624499;227;67462;-60
2023/07/05 08:13:40;;;;;;;;;;;;;;;23.12;74.77;96862.08;625932;226;67110;-61
2023/07/05 08:16:07;;;;;;;;;;;;;;;23.34;73.51;96863.39;626881;226;65672;-61
2023/07/05 08:18:35;;;;;;;;;;;;;;;23.32;73.57;96862.88;626743;226;64774;-62
2023/07/05 08:21:03;;;;;;;;;;;;;;;23.30;73.39;96857.00;626795;226;65013;-62
2023/07/05 08:23:30;;;;;;;;;;;;;;;23.28;73.32;96868.03;626806;226;62867;-61
2023/07/05 08:26:00;;;;;;;;;;;;;;;23.28;73.28;96861.88;626681;226;67302;-62
2023/07/05 08:28:29;;;;;;;;;;;;;;;23.28;73.35;96867.24;626829;226;66936;-61
2023/07/05 08:30:57;;;;;;;;;;;;;;;23.28;73.52;96862.67;626864;226;65009;-61
2023/07/05 08:33:26;;;;;;;;;;;;;;;23.28;73.52;96862.67;626778;226;67163;-61
2023/07/05 08:36:04;;;;;;;;;;;;;;;23.28;73.51;96864.56;626791;226;66939;-63
2023/07/05 08:38:32;;;;;;;;;;;;;;;23.28;73.44;96854.63;626735;225;62880;-61
2023/07/05 08:41:01;;;;;;;;;;;;;;;23.27;73.36;96858.38;626748;226;64984;-61
2023/07/05 08:43:29;;;;;;;;;;;;;;;23.28;73.37;96856.52;626787;225;65409;-61
2023/07/05 08:45:58;;;;;;;;;;;;;;;23.28;73.40;96859.98;626687;225;65046;-61
2023/07/05 08:48:26;;;;;;;;;;;;;;;23.28;73.35;96856.52;625300;225;67210;-61
2023/07/05 08:50:55;;;;;;;;;;;;;;;23.29;73.36;96855.42;619618;229;67302;-61
2023/07/05 08:53:28;;;;;;;;;;;;;;;23.29;73.31;96853.53;621309;226;65096;-61
2023/07/05 08:55:54;;;;;;;;;;;;;;;23.29;73.35;96845.48;619528;229;69082;-62
2023/07/05 08:58:29;;;;;;;;;;;;;;;23.30;73.27;96851.64;619710;229;67737;-61
2023/07/05 09:00:58;;;;;;;;;;;;;;;23.30;73.30;96847.10;619440;228;65008;-61
2023/07/05 09:03:28;;;;;;;;;;;;;;;23.30;73.32;96843.59;620739;226;67237;-61
2023/07/05 09:05:57;;;;;;;;;;;;;;;23.30;73.35;96838.23;623662;226;66985;-61
2023/07/05 09:08:26;;;;;;;;;;;;;;;23.30;73.33;96840.91;623747;226;62959;-61
2023/07/05 09:10:59;;;;;;;;;;;;;;;23.31;73.37;96847.89;626725;225;67553;-61
2023/07/05 09:13:30;;;;;;;;;;;;;;;23.30;73.39;96839.06;626591;225;67047;-60
2023/07/05 09:16:11;;;;;;;;;;;;;;;23.31;73.34;96837.16;626740;226;64971;-61
2023/07/05 09:18:50;;;;;;;;;;;;;;;23.31;73.40;96831.80;626771;226;66090;-60
2023/07/05 09:21:22;;;;;;;;;;;;;;;23.32;73.49;96836.07;626801;226;67012;-60
2023/07/05 09:23:51;;;;;;;;;;;;;;;23.31;73.40;96826.44;626749;226;62737;-60
2023/07/05 09:26:23;;;;;;;;;;;;;;;23.32;73.40;96833.39;626778;225;64990;-60
2023/07/05 09:28:52;;;;;;;;;;;;;;;23.31;73.41;96832.59;626559;225;66809;-61
2023/07/05 09:31:22;;;;;;;;;;;;;;;23.32;73.37;96830.70;626689;225;65133;-60
2023/07/05 09:33:51;;;;;;;;;;;;;;;23.32;73.30;96836.07;624434;226;67150;-60
2023/07/05 09:36:20;;;;;;;;;;;;;;;23.33;73.37;96829.64;626677;225;67078;-61
2023/07/05 09:38:49;;;;;;;;;;;;;;;23.32;73.28;96825.34;622270;226;62943;-61
2023/07/05 09:41:20;;;;;;;;;;;;;;;23.34;73.28;96825.86;625193;226;48686;-61
2023/07/05 09:43:48;;;;;;;;;;;;;;;23.33;73.26;96821.59;620729;226;67057;-61
2023/07/05 09:46:20;;;;;;;;;;;;;;;23.33;73.19;96822.39;626750;226;65054;-62
2023/07/05 09:48:49;;;;;;;;;;;;;;;23.34;73.31;96823.17;625742;225;67285;-61
2023/07/05 09:51:17;;;;;;;;;;;;;;;23.33;73.27;96814.34;626739;226;67044;-60
2023/07/05 09:53:55;;;;;;;;;;;;;;;23.34;73.33;96817.81;626813;226;62891;-61
2023/07/05 09:56:32;;;;;;;;;;;;;;;23.34;73.37;96815.13;626824;226;64968;-60
2023/07/05 09:58:54;;;;;;;;;;;;;;;23.34;73.30;96805.20;626078;225;64771;-60
2023/07/05 10:01:25;;;;;;;;;;;;;;;23.34;73.26;96799.05;626433;225;62715;-60
2023/07/05 10:04:00;;;;;;;;;;;;;;;23.35;73.33;96803.31;626807;226;67242;-61
2023/07/05 10:06:29;;;;;;;;;;;;;;;23.35;73.32;96797.94;626658;225;67301;-60
2023/07/05 10:08:57;;;;;;;;;;;;;;;23.35;73.25;96792.58;626812;226;66137;-60
2023/07/05 10:11:27;;;;;;;;;;;;;;;23.36;73.35;96791.52;626886;226;67293;-61
2023/07/05 10:14:04;;;;;;;;;;;;;;;23.35;73.36;96789.90;624815;225;67035;-60
2023/07/05 10:16:45;;;;;;;;;;;;;;;23.35;73.32;96793.38;624388;225;62891;-60
2023/07/05 10:19:20;;;;;;;;;;;;;;;23.36;73.42;96796.88;624461;225;65055;-60
2023/07/05 10:21:48;;;;;;;;;;;;;;;23.36;73.46;96788.83;624480;227;66988;-60
2023/07/05 10:24:19;;;;;;;;;;;;;;;23.36;73.37;96788.83;624633;227;65125;-60
2023/07/05 10:26:50;;;;;;;;;;;;;;;23.35;73.42;96782.64;624354;227;66905;-60
2023/07/05 10:29:22;;;;;;;;;;;;;;;23.37;73.49;96785.05;624556;227;64931;-61
2023/07/05 10:31:54;;;;;;;;;;;;;;;23.36;73.51;96786.94;624326;227;65128;-61
2023/07/05 10:34:23;;;;;;;;;;;;;;;23.36;73.45;96786.94;624486;227;67606;-62
2023/07/05 10:36:51;;;;;;;;;;;;;;;23.36;73.53;96781.58;624516;227;67342;-62
2023/07/05 10:39:22;;;;;;;;;;;;;;;23.38;73.42;96775.91;624096;227;65025;-61
2023/07/05 10:41:51;;;;;;;;;;;;;;;23.38;73.43;96771.36;620886;227;68958;-62
2023/07/05 10:44:27;;;;;;;;;;;;;;;23.38;73.46;96770.55;620310;227;67070;-62
2023/07/05 10:46:56;;;;;;;;;;;;;;;23.37;73.47;96779.69;620574;227;62887;-60
2023/07/05 10:49:24;;;;;;;;;;;;;;;23.39;73.49;96772.16;620600;227;67112;-60
2023/07/05 10:51:53;;;;;;;;;;;;;;;23.38;73.39;96783.95;619644;227;67007;-61
2023/07/05 10:54:35;;;;;;;;;;;;;;;23.39;73.36;96782.88;617486;228;65108;-60
2023/07/05 10:57:04;;;;;;;;;;;;;;;23.39;73.39;96783.67;617423;229;64991;-60
2023/07/05 10:59:38;;;;;;;;;;;;;;;23.39;73.40;96788.24;617320;227;67088;-60
2023/07/05 11:02:10;;;;;;;;;;;;;;;23.39;73.42;96791.72;617446;230;65009;-60
2023/07/05 11:04:39;;;;;;;;;;;;;;;23.39;73.44;96793.61;617342;230;67190;-62
2023/07/05 11:07:10;;;;;;;;;;;;;;;23.40;73.45;96784.47;617474;227;67721;-62
2023/07/05 11:09:38;;;;;;;;;;;;;;;23.39;73.32;96770.27;617457;228;64916;-60
2023/07/05 11:12:08;;;;;;;;;;;;;;;23.40;73.29;96768.38;617281;228;67277;-60
2023/07/05 11:14:36;;;;;;;;;;;;;;;23.39;73.31;96766.79;619683;228;66814;-62
2023/07/05 11:17:06;;;;;;;;;;;;;;;23.40;73.34;96760.33;619552;229;65104;-62
2023/07/05 11:19:33;;;;;;;;;;;;;;;23.40;73.39;96760.33;619683;229;65071;-61
2023/07/05 11:22:02;;;;;;;;;;;;;;;23.41;73.38;96764.63;619732;229;65223;-61
2023/07/05 11:24:41;;;;;;;;;;;;;;;23.42;73.40;96760.84;619605;229;62936;-62
2023/07/05 11:27:29;;;;;;;;;;;;;;;23.41;73.28;96754.69;619538;229;64999;-64
2023/07/05 11:29:58;;;;;;;;;;;;;;;23.41;73.21;96753.89;619614;229;64925;-61
2023/07/05 11:32:30;;;;;;;;;;;;;;;23.43;73.07;96749.02;619421;229;65058;-61
2023/07/05 11:34:58;;;;;;;;;;;;;;;23.44;73.04;96758.67;620111;226;63943;-62
2023/07/05 11:37:27;;;;;;;;;;;;;;;23.44;73.02;96764.03;626882;226;66794;-62
2023/07/05 11:39:54;;;;;;;;;;;;;;;23.44;73.09;96762.14;626809;226;65076;-62
2023/07/05 11:42:27;;;;;;;;;;;;;;;23.43;73.23;96752.48;626847;226;65216;-61
2023/07/05 11:44:56;;;;;;;;;;;;;;;23.43;73.23;96749.02;626817;226;64437;-61
2023/07/05 11:47:25;;;;;;;;;;;;;;;23.43;73.27;96746.33;626821;226;65250;-62
2023/07/05 11:49:54;;;;;;;;;;;;;;;23.43;73.18;96744.44;626935;226;67027;-62
2023/07/05 11:52:29;;;;;;;;;;;;;;;23.44;73.00;96750.62;626754;226;66914;-62
2023/07/05 11:55:07;;;;;;;;;;;;;;;23.44;73.02;96737.22;626806;226;65406;-60
2023/07/05 11:57:37;;;;;;;;;;;;;;;23.44;73.37;96748.73;626764;225;69125;-61
2023/07/05 12:00:14;;;;;;;;;;;;;;;23.44;73.60;96758.67;624610;226;66591;-62
2023/07/05 12:02:48;;;;;;;;;;;;;;;23.44;73.67;96761.35;623736;225;64773;-64
2023/07/05 12:05:17;;;;;;;;;;;;;;;23.44;73.69;96772.08;626810;226;67182;-62
2023/07/05 12:07:47;;;;;;;;;;;;;;;23.44;73.26;96780.91;626835;226;66988;-62
2023/07/05 12:10:16;;;;;;;;;;;;;;;23.46;73.10;96775.24;626163;226;62889;-62
2023/07/05 12:12:44;;;;;;;;;;;;;;;23.46;72.98;96773.38;625901;225;66908;-62
2023/07/05 12:15:12;;;;;;;;;;;;;;;23.47;72.87;96768.81;626291;226;64861;-62
2023/07/05 12:17:40;;;;;;;;;;;;;;;23.47;72.83;96769.59;626363;226;64846;-62
2023/07/05 12:20:19;;;;;;;;;;;;;;;23.48;72.80;96762.34;626859;226;67165;-68
2023/07/05 12:22:47;;;;;;;;;;;;;;;23.50;72.97;96768.22;626705;225;67130;-61
2023/07/05 12:25:16;;;;;;;;;;;;;;;23.49;73.06;96755.91;626781;226;42253;-61
2023/07/05 12:27:44;;;;;;;;;;;;;;;23.50;73.04;96768.22;626776;226;65859;-63
2023/07/05 12:30:18;;;;;;;;;;;;;;;23.51;73.06;96772.48;626838;226;68418;-64
2023/07/05 12:32:52;;;;;;;;;;;;;;;23.50;73.00;96762.86;626754;225;63591;-64
2023/07/05 12:35:22;;;;;;;;;;;;;;;23.51;72.84;96777.05;626788;226;67427;-66
2023/07/05 12:37:50;;;;;;;;;;;;;;;23.51;73.00;96788.58;626782;226;65389;-64
2023/07/05 12:40:19;;;;;;;;;;;;;;;23.51;72.89;96780.53;626767;226;65092;-64
2023/07/05 12:42:48;;;;;;;;;;;;;;;23.49;72.99;96762.06;626721;226;67181;-64
2023/07/05 12:45:17;;;;;;;;;;;;;;;23.50;73.06;96768.22;626781;226;67009;-64
2023/07/05 12:47:45;;;;;;;;;;;;;;;23.49;73.33;96780.84;626644;225;65065;-62
2023/07/05 12:50:14;;;;;;;;;;;;;;;23.51;73.61;96785.10;626822;226;67192;-61
2023/07/05 12:52:41;;;;;;;;;;;;;;;23.50;73.73;96789.67;626742;225;71162;-62
2023/07/05 12:55:25;;;;;;;;;;;;;;;23.52;73.24;96797.41;626795;226;63004;-67
2023/07/05 12:57:54;;;;;;;;;;;;;;;23.53;73.11;96801.70;626735;226;64651;-61